createdAt,value
2018-08-30T00:00:31.324Z,0.00
2018-08-30T00:01:31.313Z,0.00
2018-08-30T00:02:31.394Z,0.00
2018-08-30T00:04:31.705Z,0.00
2018-08-30T00:05:31.482Z,0.00
2018-08-30T00:06:31.525Z,0.00
2018-08-30T00:07:31.551Z,0.00
2018-08-30T00:08:31.549Z,0.00
2018-08-30T00:09:31.602Z,0.00
2018-08-30T00:10:31.659Z,0.00
2018-08-30T00:11:31.946Z,0.00
2018-08-30T00:12:31.716Z,0.00
2018-08-30T00:13:31.703Z,0.00
2018-08-30T00:14:31.732Z,0.00
2018-08-30T00:16:31.856Z,0.00
2018-08-30T00:17:31.838Z,0.00
2018-08-30T00:18:32.160Z,0.00
2018-08-30T00:19:31.902Z,0.00
2018-08-30T00:20:31.935Z,0.00
2018-08-30T00:21:32.018Z,0.00
2018-08-30T00:22:32.002Z,0.00
2018-08-30T00:23:32.024Z,0.00
2018-08-30T00:24:32.106Z,0.00
2018-08-30T00:25:32.094Z,0.00
2018-08-30T00:26:32.175Z,0.00
2018-08-30T00:28:32.242Z,0.00
2018-08-30T00:29:32.224Z,0.00
2018-08-30T00:30:32.304Z,0.00
2018-08-30T00:31:32.597Z,0.00
2018-08-30T00:32:32.319Z,0.00
2018-08-30T00:33:32.431Z,0.00
2018-08-30T00:34:32.385Z,0.00
2018-08-30T00:35:32.469Z,0.00
2018-08-30T00:36:32.457Z,0.00
2018-08-30T00:37:32.782Z,0.00
2018-08-30T00:38:32.571Z,0.00
2018-08-30T00:39:32.598Z,0.00
2018-08-30T00:40:32.583Z,0.00
2018-08-30T00:41:32.614Z,0.00
2018-08-30T00:42:32.702Z,0.00
2018-08-30T00:43:32.980Z,0.00
2018-08-30T00:44:32.864Z,0.00
2018-08-30T00:45:32.749Z,0.00
2018-08-30T00:46:32.833Z,0.00
2018-08-30T00:47:32.858Z,0.00
2018-08-30T00:48:32.897Z,0.00
2018-08-30T00:49:33.179Z,0.00
2018-08-30T00:50:32.959Z,0.00
2018-08-30T00:51:32.992Z,0.00
2018-08-30T00:52:32.973Z,0.00
2018-08-30T00:53:33.008Z,0.00
2018-08-30T00:54:33.089Z,0.00
2018-08-30T00:55:33.122Z,0.00
2018-08-30T00:56:33.504Z,0.00
2018-08-30T00:57:33.137Z,0.00
2018-08-30T00:58:33.221Z,0.00
2018-08-30T01:00:33.283Z,0.00
2018-08-30T01:03:33.333Z,0.00
2018-08-30T01:04:33.725Z,0.00
2018-08-30T01:05:33.448Z,0.00
2018-08-30T01:06:33.482Z,0.00
2018-08-30T01:07:33.471Z,0.00
2018-08-30T01:08:33.547Z,0.00
2018-08-30T01:09:33.539Z,0.00
2018-08-30T01:10:33.867Z,0.00
2018-08-30T01:11:33.597Z,0.00
2018-08-30T01:12:33.679Z,0.00
2018-08-30T01:13:33.718Z,0.00
2018-08-30T01:14:33.747Z,0.00
2018-08-30T01:15:33.725Z,0.00
2018-08-30T01:16:33.761Z,0.00
2018-08-30T01:17:34.090Z,0.00
2018-08-30T01:18:33.874Z,0.00
2018-08-30T01:19:33.907Z,0.00
2018-08-30T01:20:33.948Z,0.00
2018-08-30T01:21:33.938Z,0.00
2018-08-30T01:22:34.009Z,0.00
2018-08-30T01:23:34.002Z,0.00
2018-08-30T01:24:34.374Z,0.00
2018-08-30T01:25:34.062Z,0.00
2018-08-30T01:26:34.137Z,0.00
2018-08-30T01:27:34.118Z,0.00
2018-08-30T01:28:34.206Z,0.00
2018-08-30T01:29:34.240Z,0.00
2018-08-30T01:30:34.266Z,0.00
2018-08-30T01:31:34.548Z,0.00
2018-08-30T01:32:34.332Z,0.00
2018-08-30T01:33:34.320Z,0.00
2018-08-30T01:34:34.404Z,0.00
2018-08-30T01:35:34.384Z,0.00
2018-08-30T01:36:34.416Z,0.00
2018-08-30T01:37:34.450Z,0.00
2018-08-30T01:38:34.782Z,0.00
2018-08-30T01:39:34.517Z,0.00
2018-08-30T01:40:34.592Z,0.00
2018-08-30T01:41:34.594Z,0.00
2018-08-30T01:42:34.659Z,0.00
2018-08-30T01:43:34.649Z,0.00
2018-08-30T01:45:34.756Z,0.00
2018-08-30T01:46:35.093Z,0.00
2018-08-30T01:47:34.777Z,0.00
2018-08-30T01:48:34.902Z,0.00
2018-08-30T01:49:34.891Z,0.00
2018-08-30T01:50:34.920Z,0.00
2018-08-30T01:51:34.956Z,0.00
2018-08-30T01:52:34.932Z,0.00
2018-08-30T01:53:35.322Z,0.00
2018-08-30T01:54:35.001Z,0.00
2018-08-30T01:55:35.087Z,0.00
2018-08-30T01:56:35.069Z,0.00
2018-08-30T01:57:35.103Z,0.00
2018-08-30T01:58:35.186Z,0.00
2018-08-30T01:59:35.213Z,0.00
2018-08-30T02:00:35.495Z,0.00
2018-08-30T02:01:35.284Z,0.00
2018-08-30T02:02:35.262Z,0.00
2018-08-30T02:03:35.295Z,0.00
2018-08-30T02:04:35.379Z,0.00
2018-08-30T02:05:35.365Z,0.00
2018-08-30T02:06:35.459Z,0.00
2018-08-30T02:07:35.728Z,0.00
2018-08-30T02:08:35.465Z,0.00
2018-08-30T02:09:35.544Z,0.00
2018-08-30T02:10:35.572Z,0.00
2018-08-30T02:14:35.704Z,0.00
2018-08-30T02:15:35.992Z,0.00
2018-08-30T02:16:35.775Z,0.00
2018-08-30T02:17:35.756Z,0.00
2018-08-30T02:18:35.791Z,0.00
2018-08-30T02:19:35.825Z,0.00
2018-08-30T02:20:35.849Z,0.00
2018-08-30T02:21:36.035Z,0.00
2018-08-30T02:22:36.221Z,0.00
2018-08-30T02:23:35.954Z,0.00
2018-08-30T02:24:36.291Z,0.00
2018-08-30T02:25:36.115Z,0.00
2018-08-30T02:26:36.094Z,0.00
2018-08-30T02:27:36.128Z,0.00
2018-08-30T02:28:36.177Z,0.00
2018-08-30T02:29:36.448Z,0.00
2018-08-30T02:30:36.230Z,0.00
2018-08-30T02:31:36.210Z,0.00
2018-08-30T02:32:36.243Z,0.00
2018-08-30T02:33:36.424Z,0.00
2018-08-30T02:34:36.360Z,0.00
2018-08-30T02:35:36.394Z,0.00
2018-08-30T02:36:36.676Z,0.00
2018-08-30T02:37:36.414Z,0.00
2018-08-30T02:38:36.488Z,0.00
2018-08-30T02:39:36.522Z,0.00
2018-08-30T02:40:36.499Z,0.00
2018-08-30T02:42:36.567Z,0.00
2018-08-30T02:43:36.899Z,0.00
2018-08-30T02:44:36.686Z,0.00
2018-08-30T02:45:36.667Z,0.00
2018-08-30T02:46:36.746Z,0.00
2018-08-30T02:47:36.728Z,0.00
2018-08-30T02:48:36.763Z,0.00
2018-08-30T02:49:36.846Z,0.00
2018-08-30T02:50:37.132Z,0.00
2018-08-30T02:51:36.917Z,0.00
2018-08-30T02:52:36.894Z,0.00
2018-08-30T02:53:36.938Z,0.00
2018-08-30T02:54:37.006Z,0.00
2018-08-30T02:55:37.047Z,0.00
2018-08-30T02:56:37.027Z,0.00
2018-08-30T02:57:37.359Z,0.00
2018-08-30T02:58:37.138Z,0.00
2018-08-30T02:59:37.123Z,0.00
2018-08-30T03:00:37.219Z,0.00
2018-08-30T03:01:37.195Z,0.00
2018-08-30T03:02:37.272Z,0.00
2018-08-30T03:03:37.303Z,0.00
2018-08-30T03:04:37.581Z,0.00
2018-08-30T03:05:37.366Z,0.00
2018-08-30T03:06:37.354Z,0.00
2018-08-30T03:07:37.435Z,0.00
2018-08-30T03:08:37.468Z,0.00
2018-08-30T03:09:37.446Z,0.00
2018-08-30T03:10:37.532Z,0.00
2018-08-30T03:11:37.818Z,0.00
2018-08-30T03:12:37.557Z,0.00
2018-08-30T03:13:37.631Z,0.00
2018-08-30T03:14:37.669Z,0.00
2018-08-30T03:15:37.648Z,0.00
2018-08-30T03:16:37.740Z,0.00
2018-08-30T03:17:37.710Z,0.00
2018-08-30T03:18:37.798Z,0.00
2018-08-30T03:19:37.775Z,0.00
2018-08-30T03:20:37.809Z,0.00
2018-08-30T03:21:37.894Z,0.00
2018-08-30T03:22:38.030Z,0.00
2018-08-30T03:23:37.988Z,0.00
2018-08-30T03:24:38.235Z,0.00
2018-08-30T03:25:37.972Z,0.00
2018-08-30T03:26:38.057Z,0.00
2018-08-30T03:27:38.033Z,0.00
2018-08-30T03:28:38.122Z,0.00
2018-08-30T03:29:38.103Z,0.00
2018-08-30T03:31:38.472Z,0.00
2018-08-30T03:32:38.254Z,0.00
2018-08-30T03:33:38.281Z,0.00
2018-08-30T03:36:38.377Z,0.00
2018-08-30T03:37:38.662Z,0.00
2018-08-30T03:38:38.445Z,0.00
2018-08-30T03:39:38.478Z,0.00
2018-08-30T03:41:38.499Z,0.00
2018-08-30T03:42:38.570Z,0.00
2018-08-30T03:43:38.908Z,0.00
2018-08-30T03:44:38.635Z,0.00
2018-08-30T03:45:38.672Z,0.00
2018-08-30T03:46:38.701Z,0.00
2018-08-30T03:47:38.682Z,0.00
2018-08-30T03:48:38.779Z,0.00
2018-08-30T03:49:38.797Z,0.00
2018-08-30T03:50:39.136Z,0.00
2018-08-30T03:51:38.862Z,0.00
2018-08-30T03:52:38.850Z,0.00
2018-08-30T03:53:38.878Z,0.00
2018-08-30T03:54:38.961Z,0.00
2018-08-30T03:55:38.998Z,0.00
2018-08-30T03:56:38.980Z,0.00
2018-08-30T03:57:39.309Z,0.00
2018-08-30T03:58:39.092Z,0.00
2018-08-30T03:59:39.079Z,0.00
2018-08-30T04:00:39.159Z,0.00
2018-08-30T04:01:39.143Z,0.00
2018-08-30T04:03:39.213Z,0.00
2018-08-30T04:04:39.538Z,0.00
2018-08-30T04:05:39.328Z,0.00
2018-08-30T04:06:39.368Z,0.00
2018-08-30T04:07:39.340Z,0.00
2018-08-30T04:08:39.433Z,0.00
2018-08-30T04:09:39.456Z,0.00
2018-08-30T04:10:39.439Z,0.00
2018-08-30T04:11:39.773Z,0.00
2018-08-30T04:12:39.499Z,0.00
2018-08-30T04:13:39.689Z,0.00
2018-08-30T04:14:39.632Z,0.00
2018-08-30T04:15:39.650Z,0.00
2018-08-30T04:16:39.630Z,0.00
2018-08-30T04:17:39.714Z,0.00
2018-08-30T04:18:40.146Z,0.00
2018-08-30T04:19:39.732Z,0.00
2018-08-30T04:20:39.814Z,0.00
2018-08-30T04:21:39.806Z,0.00
2018-08-30T04:22:39.882Z,0.00
2018-08-30T04:23:39.861Z,0.00
2018-08-30T04:25:39.976Z,0.00
2018-08-30T04:26:40.306Z,0.00
2018-08-30T04:27:39.990Z,0.00
2018-08-30T04:28:40.076Z,0.00
2018-08-30T04:29:40.102Z,0.00
2018-08-30T04:30:40.094Z,0.00
2018-08-30T04:31:40.174Z,0.00
2018-08-30T04:32:40.149Z,0.00
2018-08-30T04:33:40.189Z,0.00
2018-08-30T04:34:40.273Z,0.00
2018-08-30T04:35:40.295Z,0.00
2018-08-30T04:36:40.286Z,0.00
2018-08-30T04:37:40.317Z,0.00
2018-08-30T04:38:40.411Z,0.00
2018-08-30T04:39:40.381Z,0.00
2018-08-30T04:40:40.525Z,0.00
2018-08-30T04:41:40.448Z,0.00
2018-08-30T04:42:40.599Z,0.00
2018-08-30T04:43:40.556Z,0.00
2018-08-30T04:44:40.540Z,0.00
2018-08-30T04:45:40.873Z,0.00
2018-08-30T04:46:40.613Z,0.00
2018-08-30T04:47:40.699Z,0.00
2018-08-30T04:48:40.671Z,0.00
2018-08-30T04:49:40.707Z,0.00
2018-08-30T04:50:40.828Z,0.00
2018-08-30T04:51:41.072Z,0.00
2018-08-30T04:52:40.862Z,0.00
2018-08-30T04:53:40.842Z,0.00
2018-08-30T04:54:40.925Z,0.00
2018-08-30T04:55:40.902Z,0.00
2018-08-30T04:56:40.931Z,0.00
2018-08-30T04:57:41.265Z,0.00
2018-08-30T04:58:41.055Z,0.00
2018-08-30T04:59:41.046Z,0.00
2018-08-30T05:00:41.076Z,0.00
2018-08-30T05:01:41.217Z,0.00
2018-08-30T05:02:41.186Z,0.00
2018-08-30T05:03:41.511Z,0.00
2018-08-30T05:04:41.242Z,0.00
2018-08-30T05:05:41.230Z,0.00
2018-08-30T05:06:41.314Z,0.00
2018-08-30T05:07:41.920Z,0.00
2018-08-30T05:08:42.565Z,0.00
2018-08-30T05:09:41.870Z,0.00
2018-08-30T05:10:42.048Z,0.00
2018-08-30T05:11:42.034Z,0.00
2018-08-30T05:12:41.461Z,5.63
2018-08-30T05:14:41.525Z,5.63
2018-08-30T05:15:41.609Z,5.63
2018-08-30T05:16:41.888Z,5.63
2018-08-30T05:17:41.728Z,5.63
2018-08-30T05:18:41.700Z,5.63
2018-08-30T05:19:41.689Z,5.63
2018-08-30T05:20:41.765Z,5.63
2018-08-30T05:21:41.750Z,5.63
2018-08-30T05:22:41.836Z,5.63
2018-08-30T05:23:42.116Z,11.25
2018-08-30T05:24:41.895Z,11.25
2018-08-30T05:25:41.883Z,11.25
2018-08-30T05:26:41.913Z,11.25
2018-08-30T05:27:42.049Z,11.25
2018-08-30T05:28:42.026Z,11.25
2018-08-30T05:29:42.077Z,11.25
2018-08-30T05:30:42.345Z,11.25
2018-08-30T05:31:42.126Z,11.25
2018-08-30T05:32:42.122Z,11.25
2018-08-30T05:33:42.166Z,11.25
2018-08-30T05:34:42.181Z,11.25
2018-08-30T05:35:42.390Z,11.25
2018-08-30T05:36:42.243Z,11.25
2018-08-30T05:37:42.324Z,11.25
2018-08-30T05:38:42.352Z,11.25
2018-08-30T05:39:42.348Z,11.25
2018-08-30T05:40:42.380Z,11.25
2018-08-30T05:41:42.458Z,11.25
2018-08-30T05:42:42.479Z,11.25
2018-08-30T05:43:42.513Z,11.25
2018-08-30T05:44:42.580Z,16.88
2018-08-30T05:45:42.579Z,16.88
2018-08-30T05:46:42.622Z,16.88
2018-08-30T05:48:42.631Z,16.88
2018-08-30T05:49:42.665Z,16.88
2018-08-30T05:50:42.751Z,11.25
2018-08-30T05:51:42.782Z,16.88
2018-08-30T05:52:42.755Z,16.88
2018-08-30T05:53:42.795Z,16.88
2018-08-30T05:54:42.823Z,16.88
2018-08-30T05:55:43.159Z,16.88
2018-08-30T05:56:43.006Z,16.88
2018-08-30T05:57:42.921Z,16.88
2018-08-30T05:58:43.015Z,16.88
2018-08-30T05:59:43.039Z,16.88
2018-08-30T06:00:43.029Z,16.88
2018-08-30T06:01:43.359Z,16.88
2018-08-30T06:02:43.083Z,22.50
2018-08-30T06:03:43.120Z,22.50
2018-08-30T06:04:43.154Z,22.50
2018-08-30T06:05:43.188Z,22.50
2018-08-30T06:06:43.280Z,22.50
2018-08-30T06:07:43.304Z,22.50
2018-08-30T06:08:43.280Z,22.50
2018-08-30T06:09:43.329Z,28.13
2018-08-30T06:10:43.403Z,28.13
2018-08-30T06:11:43.380Z,28.13
2018-08-30T06:12:43.466Z,28.13
2018-08-30T06:13:43.444Z,28.13
2018-08-30T06:14:43.844Z,28.13
2018-08-30T06:15:43.513Z,28.13
2018-08-30T06:16:43.541Z,28.13
2018-08-30T06:17:43.643Z,28.13
2018-08-30T06:18:43.606Z,28.13
2018-08-30T06:19:43.651Z,28.13
2018-08-30T06:20:43.721Z,28.13
2018-08-30T06:21:43.781Z,28.13
2018-08-30T06:22:43.794Z,28.13
2018-08-30T06:23:43.827Z,28.13
2018-08-30T06:24:43.862Z,28.13
2018-08-30T06:25:43.893Z,22.50
2018-08-30T06:26:43.972Z,22.50
2018-08-30T06:27:43.961Z,22.50
2018-08-30T06:28:44.039Z,22.50
2018-08-30T06:29:43.978Z,16.88
2018-08-30T06:30:44.006Z,22.50
2018-08-30T06:31:44.031Z,22.50
2018-08-30T06:32:44.116Z,22.50
2018-08-30T06:33:44.161Z,28.13
2018-08-30T06:34:44.232Z,22.50
2018-08-30T06:35:44.225Z,22.50
2018-08-30T06:36:44.201Z,28.13
2018-08-30T06:37:44.288Z,28.13
2018-08-30T06:38:44.328Z,28.13
2018-08-30T06:39:44.597Z,28.13
2018-08-30T06:40:44.337Z,28.13
2018-08-30T06:41:44.365Z,33.75
2018-08-30T06:42:44.445Z,33.75
2018-08-30T06:43:44.478Z,33.75
2018-08-30T06:44:44.474Z,33.75
2018-08-30T06:45:44.855Z,33.75
2018-08-30T06:46:44.589Z,33.75
2018-08-30T06:47:44.616Z,39.38
2018-08-30T06:48:44.857Z,39.38
2018-08-30T06:49:44.633Z,39.38
2018-08-30T06:50:44.656Z,39.38
2018-08-30T06:51:44.684Z,39.38
2018-08-30T06:52:45.023Z,39.38
2018-08-30T06:53:44.812Z,39.38
2018-08-30T06:54:44.837Z,39.38
2018-08-30T06:55:44.829Z,39.38
2018-08-30T06:56:44.861Z,39.38
2018-08-30T06:57:45.313Z,39.38
2018-08-30T06:58:45.600Z,45.00
2018-08-30T06:59:45.803Z,45.00
2018-08-30T07:00:45.535Z,50.63
2018-08-30T07:01:45.574Z,56.25
2018-08-30T07:02:45.105Z,56.25
2018-08-30T07:03:45.146Z,56.25
2018-08-30T07:04:45.110Z,56.25
2018-08-30T07:05:45.155Z,56.25
2018-08-30T07:06:45.489Z,61.88
2018-08-30T07:07:45.213Z,56.25
2018-08-30T07:08:45.306Z,56.25
2018-08-30T07:09:45.332Z,61.88
2018-08-30T07:10:45.364Z,61.88
2018-08-30T07:11:45.402Z,61.88
2018-08-30T07:12:45.438Z,56.25
2018-08-30T07:13:45.714Z,50.63
2018-08-30T07:14:45.535Z,50.63
2018-08-30T07:15:45.473Z,50.63
2018-08-30T07:16:45.559Z,56.25
2018-08-30T07:17:45.590Z,67.50
2018-08-30T07:18:45.631Z,67.50
2018-08-30T07:19:45.661Z,67.50
2018-08-30T07:20:46.007Z,61.88
2018-08-30T07:21:45.728Z,61.88
2018-08-30T07:22:45.708Z,61.88
2018-08-30T07:23:45.737Z,56.25
2018-08-30T07:24:45.823Z,56.25
2018-08-30T07:25:45.853Z,45.00
2018-08-30T07:26:45.894Z,50.63
2018-08-30T07:27:46.167Z,50.63
2018-08-30T07:28:45.909Z,56.25
2018-08-30T07:29:45.937Z,56.25
2018-08-30T07:30:46.029Z,56.25
2018-08-30T07:31:46.049Z,56.25
2018-08-30T07:32:46.038Z,50.63
2018-08-30T07:33:46.437Z,50.63
2018-08-30T07:34:46.494Z,56.25
2018-08-30T07:35:46.192Z,56.25
2018-08-30T07:36:46.179Z,56.25
2018-08-30T07:37:46.255Z,50.63
2018-08-30T07:38:46.286Z,50.63
2018-08-30T07:39:46.312Z,50.63
2018-08-30T07:40:46.300Z,50.63
2018-08-30T07:41:46.328Z,50.63
2018-08-30T07:42:46.424Z,50.63
2018-08-30T07:43:46.457Z,50.63
2018-08-30T07:44:46.429Z,61.88
2018-08-30T07:45:46.520Z,61.88
2018-08-30T07:46:46.550Z,67.50
2018-08-30T07:47:46.582Z,61.88
2018-08-30T07:48:46.564Z,67.50
2018-08-30T07:49:46.651Z,61.88
2018-08-30T07:50:46.726Z,61.88
2018-08-30T07:51:46.670Z,61.88
2018-08-30T07:52:46.758Z,61.88
2018-08-30T07:53:47.084Z,73.13
2018-08-30T07:54:46.821Z,61.88
2018-08-30T07:55:46.845Z,61.88
2018-08-30T07:56:46.875Z,56.25
2018-08-30T07:57:46.906Z,56.25
2018-08-30T07:58:46.955Z,56.25
2018-08-30T07:59:47.232Z,56.25
2018-08-30T08:00:46.970Z,61.88
2018-08-30T08:01:47.003Z,61.88
2018-08-30T08:02:47.034Z,61.88
2018-08-30T08:03:47.116Z,61.88
2018-08-30T08:04:47.097Z,61.88
2018-08-30T08:05:47.456Z,61.88
2018-08-30T08:06:47.229Z,61.88
2018-08-30T08:07:47.248Z,67.50
2018-08-30T08:08:47.220Z,61.88
2018-08-30T08:09:47.306Z,73.13
2018-08-30T08:10:47.407Z,67.50
2018-08-30T08:11:47.430Z,67.50
2018-08-30T08:12:47.693Z,61.88
2018-08-30T08:13:47.443Z,61.88
2018-08-30T08:14:47.479Z,61.88
2018-08-30T08:15:47.507Z,61.88
2018-08-30T08:16:47.491Z,61.88
2018-08-30T08:17:47.573Z,61.88
2018-08-30T08:18:47.606Z,56.25
2018-08-30T08:19:47.885Z,61.88
2018-08-30T08:20:47.694Z,61.88
2018-08-30T08:21:47.662Z,67.50
2018-08-30T08:22:47.692Z,67.50
2018-08-30T08:23:47.760Z,78.75
2018-08-30T08:24:47.829Z,84.38
2018-08-30T08:25:47.782Z,90.00
2018-08-30T08:26:47.868Z,73.13
2018-08-30T08:27:47.873Z,73.13
2018-08-30T08:28:47.888Z,78.75
2018-08-30T08:29:47.949Z,67.50
2018-08-30T08:30:48.052Z,73.13
2018-08-30T08:31:48.005Z,78.75
2018-08-30T08:32:48.370Z,84.38
2018-08-30T08:33:48.058Z,67.50
2018-08-30T08:34:48.149Z,67.50
2018-08-30T08:35:48.121Z,61.88
2018-08-30T08:36:48.147Z,67.50
2018-08-30T08:37:48.238Z,61.88
2018-08-30T08:38:48.268Z,61.88
2018-08-30T08:39:48.614Z,67.50
2018-08-30T08:40:48.333Z,73.13
2018-08-30T08:41:48.338Z,84.38
2018-08-30T08:42:48.366Z,84.38
2018-08-30T08:43:48.390Z,73.13
2018-08-30T08:44:48.523Z,67.50
2018-08-30T08:45:48.446Z,78.75
2018-08-30T08:46:48.537Z,78.75
2018-08-30T08:47:48.591Z,73.13
2018-08-30T08:48:48.601Z,78.75
2018-08-30T08:49:48.632Z,84.38
2018-08-30T08:50:48.676Z,84.38
2018-08-30T08:51:48.699Z,90.00
2018-08-30T08:53:49.136Z,78.75
2018-08-30T08:54:48.746Z,78.75
2018-08-30T08:55:48.794Z,73.13
2018-08-30T08:56:48.887Z,84.38
2018-08-30T08:57:48.850Z,84.38
2018-08-30T08:58:48.996Z,90.00
2018-08-30T08:59:48.915Z,95.63
2018-08-30T09:01:49.395Z,90.00
2018-08-30T09:02:49.069Z,84.38
2018-08-30T09:03:49.042Z,73.13
2018-08-30T09:04:49.085Z,78.75
2018-08-30T09:05:49.110Z,90.00
2018-08-30T09:06:49.199Z,90.00
2018-08-30T09:07:49.287Z,90.00
2018-08-30T09:08:49.210Z,84.38
2018-08-30T09:09:49.316Z,84.38
2018-08-30T09:10:49.343Z,84.38
2018-08-30T09:11:49.323Z,78.75
2018-08-30T09:12:49.400Z,73.13
2018-08-30T09:13:49.378Z,73.13
2018-08-30T09:14:49.417Z,78.75
2018-08-30T09:15:49.495Z,78.75
2018-08-30T09:16:49.478Z,78.75
2018-08-30T09:17:49.520Z,73.13
2018-08-30T09:19:49.629Z,73.13
2018-08-30T09:20:49.922Z,73.13
2018-08-30T09:21:49.660Z,78.75
2018-08-30T09:22:49.744Z,78.75
2018-08-30T09:23:49.777Z,73.13
2018-08-30T09:24:49.802Z,73.13
2018-08-30T09:25:49.787Z,73.13
2018-08-30T09:26:50.195Z,78.75
2018-08-30T09:27:49.852Z,84.38
2018-08-30T09:28:49.941Z,90.00
2018-08-30T09:29:49.974Z,84.38
2018-08-30T09:30:50.043Z,90.00
2018-08-30T09:31:50.030Z,95.63
2018-08-30T09:32:50.019Z,101.25
2018-08-30T09:33:50.143Z,90.00
2018-08-30T09:34:50.136Z,84.38
2018-08-30T09:35:50.169Z,73.13
2018-08-30T09:36:50.200Z,73.13
2018-08-30T09:37:50.232Z,78.75
2018-08-30T09:38:50.269Z,90.00
2018-08-30T09:39:50.302Z,106.88
2018-08-30T09:40:50.334Z,112.50
2018-08-30T09:41:50.370Z,106.88
2018-08-30T09:42:50.398Z,101.25
2018-08-30T09:44:50.475Z,101.25
2018-08-30T09:45:50.753Z,90.00
2018-08-30T09:46:50.538Z,90.00
2018-08-30T09:47:50.878Z,95.63
2018-08-30T09:48:50.554Z,106.88
2018-08-30T09:49:50.714Z,123.75
2018-08-30T09:50:50.672Z,106.88
2018-08-30T09:51:50.649Z,90.00
2018-08-30T09:52:50.999Z,84.38
2018-08-30T09:53:50.725Z,84.38
2018-08-30T09:54:50.808Z,90.00
2018-08-30T09:55:51.010Z,95.63
2018-08-30T09:56:50.995Z,106.88
2018-08-30T09:57:50.866Z,123.75
2018-08-30T09:58:50.896Z,129.38
2018-08-30T09:59:50.976Z,129.38
2018-08-30T10:00:50.962Z,118.13
2018-08-30T10:01:51.006Z,101.25
2018-08-30T10:02:51.076Z,90.00
2018-08-30T10:03:51.088Z,101.25
2018-08-30T10:04:51.193Z,112.50
2018-08-30T10:05:51.487Z,118.13
2018-08-30T10:06:51.219Z,118.13
2018-08-30T10:07:51.240Z,129.38
2018-08-30T10:08:51.245Z,135.00
2018-08-30T10:09:51.324Z,135.00
2018-08-30T10:10:51.352Z,129.38
2018-08-30T10:11:51.384Z,123.75
2018-08-30T10:12:51.416Z,112.50
2018-08-30T10:13:51.394Z,106.88
2018-08-30T10:14:51.484Z,101.25
2018-08-30T10:15:51.478Z,101.25
2018-08-30T10:16:51.551Z,101.25
2018-08-30T10:17:51.842Z,101.25
2018-08-30T10:18:51.567Z,95.63
2018-08-30T10:19:51.612Z,90.00
2018-08-30T10:20:51.640Z,84.38
2018-08-30T10:21:51.720Z,90.00
2018-08-30T10:22:51.758Z,90.00
2018-08-30T10:23:51.796Z,84.38
2018-08-30T10:24:51.786Z,90.00
2018-08-30T10:25:51.815Z,90.00
2018-08-30T10:26:51.904Z,90.00
2018-08-30T10:27:51.878Z,90.00
2018-08-30T10:28:51.983Z,95.63
2018-08-30T10:29:51.942Z,101.25
2018-08-30T10:30:52.023Z,112.50
2018-08-30T10:31:52.009Z,106.88
2018-08-30T10:32:52.042Z,112.50
2018-08-30T10:33:52.128Z,129.38
2018-08-30T10:34:52.105Z,135.00
2018-08-30T10:35:52.216Z,118.13
2018-08-30T10:36:52.262Z,101.25
2018-08-30T10:37:52.353Z,90.00
2018-08-30T10:38:52.300Z,95.63
2018-08-30T10:39:52.389Z,95.63
2018-08-30T10:40:52.335Z,95.63
2018-08-30T10:41:52.347Z,95.63
2018-08-30T10:42:52.499Z,95.63
2018-08-30T10:43:52.503Z,101.25
2018-08-30T10:45:52.483Z,112.50
2018-08-30T10:46:52.572Z,118.13
2018-08-30T10:47:52.556Z,112.50
2018-08-30T10:48:52.639Z,118.13
2018-08-30T10:49:52.722Z,112.50
2018-08-30T10:50:52.708Z,118.13
2018-08-30T10:51:52.744Z,118.13
2018-08-30T10:53:52.767Z,118.13
2018-08-30T10:54:52.841Z,106.88
2018-08-30T10:55:52.887Z,90.00
2018-08-30T10:56:52.908Z,90.00
2018-08-30T10:57:52.906Z,101.25
2018-08-30T10:58:52.984Z,118.13
2018-08-30T10:59:53.284Z,129.38
2018-08-30T11:00:52.996Z,129.38
2018-08-30T11:02:53.112Z,118.13
2018-08-30T11:03:53.186Z,118.13
2018-08-30T11:04:53.130Z,112.50
2018-08-30T11:05:53.212Z,106.88
2018-08-30T11:06:53.504Z,101.25
2018-08-30T11:07:53.288Z,106.88
2018-08-30T11:08:53.268Z,106.88
2018-08-30T11:09:53.299Z,112.50
2018-08-30T11:10:53.332Z,112.50
2018-08-30T11:11:53.370Z,118.13
2018-08-30T11:12:53.535Z,129.38
2018-08-30T11:13:53.435Z,140.63
2018-08-30T11:15:53.506Z,157.50
2018-08-30T11:16:53.543Z,140.63
2018-08-30T11:17:53.631Z,135.00
2018-08-30T11:18:53.661Z,135.00
2018-08-30T11:19:53.973Z,135.00
2018-08-30T11:20:53.696Z,140.63
2018-08-30T11:21:53.764Z,146.25
2018-08-30T11:22:53.799Z,140.63
2018-08-30T11:23:53.780Z,129.38
2018-08-30T11:24:53.813Z,135.00
2018-08-30T11:25:53.870Z,135.00
2018-08-30T11:26:54.184Z,135.00
2018-08-30T11:27:53.967Z,129.38
2018-08-30T11:28:53.996Z,129.38
2018-08-30T11:29:53.997Z,129.38
2018-08-30T11:30:54.078Z,129.38
2018-08-30T11:31:54.109Z,135.00
2018-08-30T11:32:54.083Z,146.25
2018-08-30T11:33:54.168Z,146.25
2018-08-30T11:34:54.211Z,151.88
2018-08-30T11:35:54.259Z,163.13
2018-08-30T11:36:54.272Z,163.13
2018-08-30T11:37:54.282Z,157.50
2018-08-30T11:38:54.413Z,151.88
2018-08-30T11:39:54.632Z,135.00
2018-08-30T11:40:54.362Z,129.38
2018-08-30T11:41:54.451Z,123.75
2018-08-30T11:42:54.476Z,123.75
2018-08-30T11:43:54.527Z,123.75
2018-08-30T11:44:54.546Z,123.75
2018-08-30T11:45:54.539Z,123.75
2018-08-30T11:46:54.618Z,129.38
2018-08-30T11:47:54.602Z,135.00
2018-08-30T11:48:54.645Z,140.63
2018-08-30T11:49:54.672Z,146.25
2018-08-30T11:50:54.750Z,140.63
2018-08-30T11:51:55.090Z,135.00
2018-08-30T11:52:54.828Z,129.38
2018-08-30T11:53:54.863Z,129.38
2018-08-30T11:54:54.897Z,135.00
2018-08-30T11:55:54.882Z,135.00
2018-08-30T11:56:54.964Z,140.63
2018-08-30T11:57:54.995Z,140.63
2018-08-30T11:58:55.284Z,146.25
2018-08-30T11:59:55.008Z,151.88
2018-08-30T12:00:55.253Z,157.50
2018-08-30T12:01:55.079Z,151.88
2018-08-30T12:02:55.116Z,146.25
2018-08-30T12:03:55.207Z,151.88
2018-08-30T12:04:55.191Z,163.13
2018-08-30T12:05:55.278Z,168.75
2018-08-30T12:06:55.340Z,168.75
2018-08-30T12:07:55.385Z,180.00
2018-08-30T12:08:55.588Z,191.25
2018-08-30T12:09:56.844Z,180.00
2018-08-30T12:10:55.565Z,168.75
2018-08-30T12:11:55.730Z,151.88
2018-08-30T12:12:55.465Z,140.63
2018-08-30T12:13:55.552Z,129.38
2018-08-30T12:14:55.581Z,135.00
2018-08-30T12:15:55.564Z,135.00
2018-08-30T12:16:55.605Z,129.38
2018-08-30T12:17:55.628Z,135.00
2018-08-30T12:18:56.095Z,140.63
2018-08-30T12:19:55.757Z,151.88
2018-08-30T12:20:55.806Z,157.50
2018-08-30T12:21:55.772Z,163.13
2018-08-30T12:22:55.857Z,174.38
2018-08-30T12:23:55.888Z,180.00
2018-08-30T12:24:55.926Z,185.63
2018-08-30T12:25:56.262Z,185.63
2018-08-30T12:26:55.995Z,180.00
2018-08-30T12:27:55.979Z,180.00
2018-08-30T12:28:56.057Z,174.38
2018-08-30T12:29:56.070Z,174.38
2018-08-30T12:30:56.183Z,174.38
2018-08-30T12:31:56.170Z,174.38
2018-08-30T12:32:56.186Z,168.75
2018-08-30T12:33:56.282Z,168.75
2018-08-30T12:34:56.361Z,168.75
2018-08-30T12:35:56.516Z,168.75
2018-08-30T12:37:56.405Z,163.13
2018-08-30T12:38:56.413Z,163.13
2018-08-30T12:39:56.547Z,163.13
2018-08-30T12:40:56.527Z,163.13
2018-08-30T12:41:56.481Z,163.13
2018-08-30T12:42:56.822Z,163.13
2018-08-30T12:43:56.767Z,163.13
2018-08-30T12:44:56.949Z,163.13
2018-08-30T12:45:56.670Z,163.13
2018-08-30T12:46:56.693Z,163.13
2018-08-30T12:47:56.768Z,163.13
2018-08-30T12:48:56.726Z,168.75
2018-08-30T12:49:56.841Z,180.00
2018-08-30T12:50:56.979Z,180.00
2018-08-30T12:51:57.076Z,180.00
2018-08-30T12:52:57.096Z,180.00
2018-08-30T12:53:56.914Z,185.63
2018-08-30T12:54:57.003Z,191.25
2018-08-30T12:55:57.129Z,213.75
2018-08-30T12:56:57.419Z,191.25
2018-08-30T12:57:57.202Z,213.75
2018-08-30T12:58:57.209Z,247.50
2018-08-30T12:59:57.251Z,275.63
2018-08-30T13:00:57.260Z,275.63
2018-08-30T13:01:57.466Z,286.88
2018-08-30T13:02:57.436Z,309.38
2018-08-30T13:04:57.806Z,354.38
2018-08-30T13:05:57.640Z,371.25
2018-08-30T13:06:57.599Z,393.75
2018-08-30T13:07:57.551Z,405.00
2018-08-30T13:08:57.620Z,416.25
2018-08-30T13:09:57.705Z,421.88
2018-08-30T13:10:57.917Z,421.88
2018-08-30T13:11:58.309Z,191.25
2018-08-30T13:12:57.857Z,157.50
2018-08-30T13:13:57.878Z,157.50
2018-08-30T13:14:58.210Z,157.50
2018-08-30T13:15:58.045Z,163.13
2018-08-30T13:16:57.932Z,180.00
2018-08-30T13:17:58.031Z,196.88
2018-08-30T13:18:58.156Z,219.38
2018-08-30T13:19:58.045Z,590.63
2018-08-30T13:20:58.438Z,573.75
2018-08-30T13:21:58.406Z,596.25
2018-08-30T13:22:58.359Z,472.50
2018-08-30T13:23:58.303Z,264.38
2018-08-30T13:24:58.687Z,292.50
2018-08-30T13:25:58.358Z,371.25